createdAt,value
2022-09-07T00:03:37.964Z,60.31
2022-09-07T00:08:41.383Z,66.08
2022-09-07T00:13:45.321Z,65.18
2022-09-07T00:23:05.685Z,56.81
2022-09-07T00:28:08.378Z,60.29
2022-09-07T00:33:10.705Z,63.56
2022-09-07T00:38:13.035Z,68.50
2022-09-07T00:43:27.322Z,61.29
2022-09-07T00:48:32.801Z,56.76
2022-09-07T00:53:38.171Z,60.20
2022-09-07T00:58:45.170Z,66.98
2022-09-07T01:03:48.616Z,63.73
2022-09-07T01:08:50.941Z,58.03
2022-09-07T01:13:53.901Z,58.53
2022-09-07T01:18:59.110Z,61.43
2022-09-07T01:24:15.375Z,68.60
2022-09-07T01:29:24.698Z,62.26
2022-09-07T01:34:27.076Z,57.01
2022-09-07T01:39:34.573Z,58.85
2022-09-07T01:44:36.837Z,64.23
2022-09-07T01:49:43.268Z,67.09
2022-09-07T01:54:48.998Z,60.72
2022-09-07T01:59:55.584Z,56.46
2022-09-07T02:05:03.810Z,60.14
2022-09-07T02:10:10.216Z,66.93
2022-09-07T02:15:17.271Z,61.79
2022-09-07T02:20:22.980Z,56.90
2022-09-07T02:25:28.942Z,59.98
2022-09-07T02:30:31.249Z,67.27
2022-09-07T02:35:34.262Z,63.54
2022-09-07T02:40:36.552Z,57.51
2022-09-07T02:45:40.814Z,58.34
2022-09-07T02:50:49.771Z,61.14
2022-09-07T02:55:55.135Z,66.00
2022-09-07T03:01:00.466Z,67.80
2022-09-07T03:06:04.837Z,61.26
2022-09-07T03:11:07.802Z,57.07
2022-09-07T03:16:13.126Z,56.64
2022-09-07T03:21:15.477Z,59.70
2022-09-07T03:26:23.862Z,69.27
2022-09-07T03:31:26.355Z,67.62
2022-09-07T03:36:30.653Z,61.66
2022-09-07T03:41:33.661Z,57.48
2022-09-07T03:46:36.014Z,59.11
2022-09-07T03:51:38.408Z,65.11
2022-09-07T03:56:41.226Z,67.34
2022-09-07T04:01:43.647Z,60.23
2022-09-07T04:06:46.333Z,59.75
2022-09-07T04:11:48.699Z,65.86
2022-09-07T04:16:51.118Z,65.07
2022-09-07T04:21:53.481Z,59.24
2022-09-07T04:26:56.482Z,57.46
2022-09-07T04:31:58.794Z,61.37
2022-09-07T04:37:01.089Z,68.09
2022-09-07T04:42:03.506Z,62.47
2022-09-07T04:47:06.204Z,56.94
2022-09-07T04:52:08.502Z,59.42
2022-09-07T04:57:11.415Z,60.70
2022-09-07T05:02:13.811Z,67.25
2022-09-07T05:07:16.232Z,65.44
2022-09-07T05:12:18.536Z,58.19
2022-09-07T05:17:20.873Z,56.11
2022-09-07T05:22:24.844Z,59.75
2022-09-07T05:27:27.198Z,63.84
2022-09-07T05:32:29.588Z,66.35
2022-09-07T05:37:31.954Z,57.86
2022-09-07T05:42:35.324Z,57.34
2022-09-07T05:47:38.052Z,59.99
2022-09-07T05:52:40.348Z,61.02
2022-09-07T05:57:43.185Z,62.27
2022-09-07T06:02:45.642Z,64.80
2022-09-07T06:07:48.428Z,67.81
2022-09-07T06:12:50.729Z,58.52
2022-09-07T06:17:53.739Z,55.43
2022-09-07T06:22:56.073Z,57.58
2022-09-07T06:27:59.469Z,59.28
2022-09-07T06:33:02.102Z,59.56
2022-09-07T06:38:04.395Z,60.53
2022-09-07T06:43:06.703Z,60.90
2022-09-07T06:48:09.000Z,61.13
2022-09-07T06:58:33.781Z,61.90
2022-09-07T07:03:36.612Z,61.95
2022-09-07T07:08:39.487Z,61.46
2022-09-07T07:13:42.831Z,60.92
2022-09-07T07:18:45.794Z,60.77
2022-09-07T07:23:50.025Z,60.40
2022-09-07T07:34:00.479Z,64.54
2022-09-07T07:39:03.670Z,55.07
2022-09-07T07:44:06.050Z,52.17
2022-09-07T07:49:09.043Z,53.00
2022-09-07T07:54:11.425Z,53.50
2022-09-07T07:59:15.939Z,53.42
2022-09-07T08:04:18.422Z,55.13
2022-09-07T08:09:20.793Z,52.24
2022-09-07T08:14:23.188Z,54.50
2022-09-07T08:19:25.475Z,50.91
2022-09-07T08:24:27.759Z,50.25
2022-09-07T08:29:33.813Z,49.74
2022-09-07T08:34:37.662Z,46.72
2022-09-07T08:39:40.857Z,45.92
2022-09-07T08:44:43.175Z,45.12
2022-09-07T08:49:48.660Z,48.01
2022-09-07T08:54:54.021Z,46.32
2022-09-07T08:59:59.257Z,46.99
2022-09-07T09:05:18.259Z,47.82
2022-09-07T09:10:31.092Z,44.30
2022-09-07T09:15:42.458Z,41.16
2022-09-07T09:20:47.713Z,44.17
2022-09-07T09:25:52.959Z,41.32
2022-09-07T09:30:55.334Z,40.45
2022-09-07T09:35:59.645Z,43.09
2022-09-07T09:41:05.960Z,42.44
2022-09-07T09:46:18.944Z,40.85
2022-09-07T09:56:45.864Z,39.19
2022-09-07T10:07:14.557Z,40.79
2022-09-07T10:12:19.829Z,41.01
2022-09-07T10:17:27.471Z,41.49
2022-09-07T10:22:32.925Z,42.12
2022-09-07T10:27:36.854Z,39.82
2022-09-07T10:32:42.104Z,39.83
2022-09-07T10:37:47.370Z,41.06
2022-09-07T10:48:28.860Z,40.08
2022-09-07T10:53:41.313Z,40.85
2022-09-07T11:04:09.733Z,39.34
2022-09-07T11:09:16.669Z,38.93
2022-09-07T11:14:22.199Z,37.61
2022-09-07T11:19:37.288Z,38.36
2022-09-07T11:24:45.243Z,36.90
2022-09-07T11:29:50.589Z,37.27
2022-09-07T11:34:57.363Z,38.87
2022-09-07T11:40:02.687Z,40.40
2022-09-07T11:45:12.846Z,37.78
2022-09-07T11:50:16.509Z,40.73
2022-09-07T11:55:23.793Z,39.11
2022-09-07T12:00:33.101Z,39.02
2022-09-07T12:05:38.362Z,37.19
2022-09-07T12:10:42.907Z,34.69
2022-09-07T12:15:52.443Z,34.60
2022-09-07T12:20:54.853Z,37.71
2022-09-07T12:26:17.127Z,35.98
2022-09-07T12:31:40.751Z,34.24
2022-09-07T12:36:58.987Z,35.45
2022-09-07T12:47:29.550Z,34.82
2022-09-07T12:52:31.807Z,36.01
2022-09-07T12:57:41.972Z,35.22
2022-09-07T13:02:56.763Z,35.26
2022-09-07T13:08:08.826Z,33.55
2022-09-07T13:13:14.678Z,35.26
2022-09-07T13:18:20.289Z,34.09
2022-09-07T13:23:24.117Z,31.61
2022-09-07T13:28:31.670Z,31.68
2022-09-07T13:33:34.070Z,35.67
2022-09-07T13:38:36.720Z,33.15
2022-09-07T13:43:40.055Z,33.19
2022-09-07T13:48:49.002Z,35.86
2022-09-07T13:53:52.283Z,35.02
2022-09-07T13:58:55.002Z,32.82
2022-09-07T14:04:07.586Z,30.55
2022-09-07T14:09:12.869Z,33.71
2022-09-07T14:14:17.886Z,29.49
2022-09-07T14:19:24.023Z,28.99
2022-09-07T14:24:28.674Z,31.71
2022-09-07T14:29:32.286Z,27.42
2022-09-07T14:34:35.985Z,27.12
2022-09-07T14:39:39.586Z,29.91
2022-09-07T14:44:43.095Z,31.29
2022-09-07T14:49:49.196Z,28.02
2022-09-07T14:54:52.575Z,27.38
2022-09-07T14:59:57.174Z,29.16
2022-09-07T15:05:02.588Z,27.29
2022-09-07T15:10:08.362Z,28.05
2022-09-07T15:15:12.414Z,31.55
2022-09-07T15:20:17.815Z,32.61
2022-09-07T15:25:20.131Z,33.77
2022-09-07T15:30:22.668Z,34.49
2022-09-07T15:35:25.425Z,34.16
2022-09-07T15:40:28.596Z,32.99
2022-09-07T15:45:30.938Z,31.84
2022-09-07T15:50:33.552Z,30.05
2022-09-07T15:55:37.207Z,29.05
2022-09-07T16:00:39.671Z,27.61
2022-09-07T16:05:43.978Z,29.47
2022-09-07T16:10:53.612Z,29.93
2022-09-07T16:15:59.904Z,32.40
2022-09-07T16:21:04.606Z,34.75
2022-09-07T16:26:08.125Z,36.68
2022-09-07T16:31:16.241Z,38.48
2022-09-07T16:36:19.248Z,39.94
2022-09-07T16:41:24.268Z,41.39
2022-09-07T16:46:28.267Z,42.32
2022-09-07T16:51:30.616Z,43.19
2022-09-07T16:56:38.309Z,43.65
2022-09-07T17:01:41.545Z,43.77
2022-09-07T17:06:44.467Z,43.96
2022-09-07T17:11:46.794Z,45.14
2022-09-07T17:16:49.198Z,45.70
2022-09-07T17:21:53.539Z,47.27
2022-09-07T17:26:55.847Z,46.90
2022-09-07T17:37:21.480Z,46.38
2022-09-07T17:42:26.313Z,49.99
2022-09-07T17:47:50.178Z,51.32
2022-09-07T17:52:53.164Z,50.77
2022-09-07T17:57:55.560Z,51.15
2022-09-07T18:02:58.947Z,51.86
2022-09-07T18:08:01.512Z,51.78
2022-09-07T18:13:03.907Z,52.57
2022-09-07T18:18:06.899Z,52.68
2022-09-07T18:23:10.399Z,52.14
2022-09-07T18:33:35.766Z,52.39
2022-09-07T18:38:38.099Z,52.71
2022-09-07T18:43:41.755Z,52.58
2022-09-07T18:48:44.144Z,52.13
2022-09-07T18:53:47.104Z,51.93
2022-09-07T18:58:54.456Z,52.76
2022-09-07T19:03:57.125Z,51.98
2022-09-07T19:08:59.756Z,52.79
2022-09-07T19:14:04.795Z,53.79
2022-09-07T19:19:07.669Z,55.47
2022-09-07T19:24:12.787Z,57.50
2022-09-07T19:29:17.066Z,58.87
2022-09-07T19:34:20.281Z,58.09
2022-09-07T19:39:22.616Z,56.86
2022-09-07T19:44:24.983Z,57.40
2022-09-07T19:49:27.617Z,63.40
2022-09-07T19:54:29.916Z,73.22
2022-09-07T19:59:32.258Z,63.29
2022-09-07T20:04:35.709Z,56.41
2022-09-07T20:09:37.996Z,58.77
2022-09-07T20:14:40.286Z,60.47
2022-09-07T20:19:42.607Z,62.76
2022-09-07T20:24:44.946Z,68.64
2022-09-07T20:29:47.224Z,59.72
2022-09-07T20:34:50.423Z,57.04
2022-09-07T20:39:52.827Z,60.76
2022-09-07T20:44:55.347Z,66.16
2022-09-07T20:49:57.645Z,60.69
2022-09-07T20:54:59.946Z,56.00
2022-09-07T21:00:02.425Z,59.39
2022-09-07T21:05:05.011Z,61.11
2022-09-07T21:10:07.741Z,67.28
2022-09-07T21:15:10.157Z,60.24
2022-09-07T21:20:12.443Z,56.14
2022-09-07T21:25:15.624Z,58.52
2022-09-07T21:30:18.004Z,59.24
2022-09-07T21:35:20.391Z,59.71
2022-09-07T21:40:24.491Z,61.02
2022-09-07T21:45:26.792Z,61.16
2022-09-07T21:50:29.924Z,61.88
2022-09-07T21:55:32.279Z,62.02
2022-09-07T22:00:34.664Z,61.74
2022-09-07T22:05:37.421Z,61.08
2022-09-07T22:10:39.797Z,61.32
2022-09-07T22:15:42.429Z,61.37
2022-09-07T22:20:44.804Z,61.20
2022-09-07T22:25:50.091Z,60.66
2022-09-07T22:30:54.600Z,60.87
2022-09-07T22:36:10.724Z,60.30
2022-09-07T22:41:15.181Z,60.47
2022-09-07T22:46:18.801Z,60.42
2022-09-07T22:51:21.852Z,60.42
2022-09-07T22:56:25.621Z,60.52
2022-09-07T23:01:29.310Z,61.12
2022-09-07T23:06:33.465Z,75.48
2022-09-07T23:11:36.213Z,66.92
2022-09-07T23:16:38.991Z,59.77
2022-09-07T23:21:41.880Z,55.34
2022-09-07T23:26:44.531Z,57.01
2022-09-07T23:31:47.959Z,59.08
2022-09-07T23:36:50.810Z,58.69
2022-09-07T23:41:53.513Z,59.30
2022-09-07T23:46:55.862Z,59.68
2022-09-07T23:51:58.156Z,60.91
2022-09-07T23:57:00.465Z,60.27
